createdAt,value
2019-02-20T00:04:17.196Z,3.83
2019-02-20T00:08:52.965Z,3.12
2019-02-20T00:13:28.838Z,3.27
2019-02-20T00:18:04.602Z,3.35
2019-02-20T00:22:40.633Z,3.17
2019-02-20T00:27:16.621Z,2.95
2019-02-20T00:31:52.400Z,2.40
2019-02-20T00:36:28.245Z,2.30
2019-02-20T00:41:04.058Z,3.02
2019-02-20T00:45:57.801Z,2.80
2019-02-20T00:50:35.120Z,2.98
2019-02-20T00:55:11.490Z,2.75
2019-02-20T00:59:47.308Z,2.15
2019-02-20T01:04:23.077Z,3.25
2019-02-20T01:08:58.883Z,2.92
2019-02-20T01:13:34.646Z,2.50
2019-02-20T01:18:10.477Z,3.00
2019-02-20T01:22:46.230Z,2.62
2019-02-20T01:27:22.009Z,2.72
2019-02-20T01:31:57.769Z,2.05
2019-02-20T01:36:33.552Z,3.05
2019-02-20T01:41:09.316Z,2.83
2019-02-20T01:45:45.101Z,2.80
2019-02-20T01:50:20.864Z,3.52
2019-02-20T01:54:56.652Z,2.55
2019-02-20T01:59:32.430Z,2.00
2019-02-20T02:04:08.244Z,3.42
2019-02-20T02:08:44.009Z,3.90
2019-02-20T02:13:19.781Z,2.67
2019-02-20T02:17:55.568Z,2.90
2019-02-20T02:22:31.338Z,1.92
2019-02-20T02:27:07.119Z,2.83
2019-02-20T02:31:42.898Z,2.75
2019-02-20T02:36:18.658Z,2.30
2019-02-20T02:40:54.445Z,2.87
2019-02-20T02:45:30.202Z,2.05
2019-02-20T02:50:06.923Z,3.15
2019-02-20T02:54:42.701Z,3.55
2019-02-20T02:59:18.492Z,3.27
2019-02-20T03:03:54.269Z,2.62
2019-02-20T03:08:30.049Z,3.60
2019-02-20T03:13:05.869Z,6.47
2019-02-20T03:17:41.961Z,6.08
2019-02-20T03:22:17.752Z,2.55
2019-02-20T03:26:53.592Z,2.47
2019-02-20T03:31:29.376Z,2.77
2019-02-20T03:36:05.241Z,2.33
2019-02-20T03:40:41.011Z,3.08
2019-02-20T03:45:16.793Z,2.72
2019-02-20T03:49:52.556Z,2.33
2019-02-20T03:54:28.329Z,2.62
2019-02-20T03:59:04.120Z,2.08
2019-02-20T04:03:39.960Z,3.42
2019-02-20T04:08:15.763Z,2.80
2019-02-20T04:12:51.532Z,2.67
2019-02-20T04:17:27.292Z,2.70
2019-02-20T04:22:03.077Z,2.67
2019-02-20T04:26:40.066Z,2.40
2019-02-20T04:31:15.853Z,2.55
2019-02-20T04:35:51.655Z,2.75
2019-02-20T04:40:27.526Z,2.02
2019-02-20T04:45:03.289Z,1.87
2019-02-20T04:49:39.049Z,2.40
2019-02-20T04:54:14.803Z,2.50
2019-02-20T04:58:55.977Z,2.60
2019-02-20T05:03:31.732Z,2.87
2019-02-20T05:08:07.522Z,3.67
2019-02-20T05:12:43.318Z,3.05
2019-02-20T05:17:19.158Z,3.52
2019-02-20T05:21:54.927Z,3.77
2019-02-20T05:26:30.709Z,4.00
2019-02-20T05:31:06.474Z,2.85
2019-02-20T05:35:43.541Z,2.87
2019-02-20T05:40:22.377Z,2.25
2019-02-20T05:44:58.159Z,2.60
2019-02-20T05:49:33.922Z,2.45
2019-02-20T05:54:09.702Z,2.75
2019-02-20T05:58:45.490Z,3.37
2019-02-20T06:03:21.338Z,3.00
2019-02-20T06:07:57.104Z,3.10
2019-02-20T06:12:32.897Z,4.83
2019-02-20T06:17:08.733Z,4.45
2019-02-20T06:21:44.602Z,3.52
2019-02-20T06:26:20.400Z,3.77
2019-02-20T06:30:56.255Z,3.72
2019-02-20T06:35:32.000Z,3.90
2019-02-20T06:40:09.411Z,3.58
2019-02-20T06:44:45.175Z,4.15
2019-02-20T06:49:22.457Z,4.28
2019-02-20T06:53:58.216Z,3.05
2019-02-20T06:58:34.006Z,3.98
2019-02-20T07:03:09.784Z,3.40
2019-02-20T07:08:04.485Z,2.85
2019-02-20T07:13:08.257Z,3.53
2019-02-20T07:18:16.187Z,2.42
2019-02-20T07:23:35.885Z,2.98
2019-02-20T07:28:58.245Z,2.83
2019-02-20T07:33:34.044Z,2.95
2019-02-20T07:38:09.841Z,3.17
2019-02-20T07:42:45.612Z,3.08
2019-02-20T07:47:21.397Z,3.08
2019-02-20T07:51:57.167Z,3.17
2019-02-20T07:56:32.953Z,3.42
2019-02-20T08:01:08.714Z,4.67
2019-02-20T08:05:44.501Z,5.00
2019-02-20T08:10:20.265Z,3.00
2019-02-20T08:14:56.076Z,5.35
2019-02-20T08:19:31.908Z,5.42
2019-02-20T08:24:07.780Z,9.58
2019-02-20T08:28:43.605Z,6.35
2019-02-20T08:33:19.398Z,3.92
2019-02-20T08:42:30.012Z,7.28
2019-02-20T08:47:05.781Z,3.35
2019-02-20T08:51:41.568Z,2.98
2019-02-20T08:56:17.345Z,4.62
2019-02-20T09:00:53.133Z,2.42
2019-02-20T09:05:28.906Z,2.50
2019-02-20T09:10:05.876Z,2.50
2019-02-20T09:14:41.723Z,2.80
2019-02-20T09:19:17.506Z,3.00
2019-02-20T09:23:53.310Z,2.87
2019-02-20T09:28:29.150Z,2.37
2019-02-20T09:33:04.936Z,2.47
2019-02-20T09:37:40.717Z,2.55
2019-02-20T09:42:18.789Z,2.77
2019-02-20T09:46:54.556Z,2.62
2019-02-20T09:51:30.317Z,3.33
2019-02-20T09:56:06.088Z,3.17
2019-02-20T10:00:42.957Z,2.35
2019-02-20T10:05:18.737Z,2.70
2019-02-20T10:09:54.600Z,3.30
2019-02-20T10:14:30.369Z,2.90
2019-02-20T10:19:06.133Z,2.27
2019-02-20T10:23:41.919Z,2.35
2019-02-20T10:28:17.913Z,2.37
2019-02-20T10:32:53.692Z,2.85
2019-02-20T10:37:29.446Z,3.55
2019-02-20T10:42:05.248Z,2.95
2019-02-20T10:46:41.013Z,2.95
2019-02-20T10:51:16.790Z,2.00
2019-02-20T10:55:52.545Z,3.17
2019-02-20T11:00:29.968Z,3.27
2019-02-20T11:05:07.621Z,3.62
2019-02-20T11:09:43.416Z,2.83
2019-02-20T11:14:19.185Z,2.67
2019-02-20T11:18:55.058Z,3.62
2019-02-20T11:23:30.836Z,4.05
2019-02-20T11:28:06.605Z,3.20
2019-02-20T11:32:42.396Z,3.95
2019-02-20T11:37:19.494Z,2.90
2019-02-20T11:41:55.278Z,2.47
2019-02-20T11:46:31.068Z,3.70
2019-02-20T11:51:07.013Z,3.05
2019-02-20T11:55:42.834Z,3.15
2019-02-20T12:00:18.628Z,2.62
2019-02-20T12:04:54.409Z,2.80
2019-02-20T12:09:30.246Z,3.55
2019-02-20T12:14:06.101Z,2.75
2019-02-20T12:18:41.887Z,3.98
2019-02-20T12:23:17.681Z,3.22
2019-02-20T12:27:53.469Z,3.50
2019-02-20T12:32:30.904Z,3.42
2019-02-20T12:37:06.788Z,3.85
2019-02-20T12:41:42.657Z,2.83
2019-02-20T12:46:18.429Z,3.95
2019-02-20T12:50:54.226Z,3.00
2019-02-20T12:55:30.289Z,3.05
2019-02-20T13:00:07.160Z,4.30
2019-02-20T13:04:43.714Z,4.30
2019-02-20T13:09:20.603Z,5.55
2019-02-20T13:13:56.385Z,4.25
2019-02-20T13:18:32.196Z,4.35
2019-02-20T13:23:08.984Z,3.45
2019-02-20T13:27:44.941Z,4.05
2019-02-20T13:32:20.750Z,4.30
2019-02-20T13:36:56.601Z,3.55
2019-02-20T13:41:32.477Z,4.85
2019-02-20T13:46:08.402Z,3.42
2019-02-20T13:50:44.189Z,2.98
2019-02-20T13:55:20.467Z,3.55
2019-02-20T13:59:56.293Z,3.27
2019-02-20T14:04:32.156Z,3.83
2019-02-20T14:09:08.422Z,3.83
2019-02-20T14:13:44.300Z,4.10
2019-02-20T14:18:20.104Z,3.42
2019-02-20T14:22:55.969Z,3.05
2019-02-20T14:27:31.812Z,3.22
2019-02-20T14:32:07.605Z,3.87
2019-02-20T14:36:44.383Z,3.52
2019-02-20T14:41:21.418Z,3.22
2019-02-20T14:45:57.444Z,4.03
2019-02-20T14:50:33.304Z,3.67
2019-02-20T14:55:09.194Z,3.17
2019-02-20T14:59:45.062Z,3.67
2019-02-20T15:04:20.917Z,5.95
2019-02-20T15:08:56.721Z,6.62
2019-02-20T15:13:32.492Z,7.30
2019-02-20T15:18:08.356Z,6.65
2019-02-20T15:22:44.164Z,7.60
2019-02-20T15:27:28.293Z,6.35
2019-02-20T15:31:57.502Z,6.95
2019-02-20T15:36:33.377Z,6.33
2019-02-20T15:41:09.201Z,7.37
2019-02-20T15:45:45.133Z,7.60
2019-02-20T15:50:21.008Z,6.85
2019-02-20T15:54:58.695Z,8.40
2019-02-20T15:59:34.547Z,8.93
2019-02-20T16:04:10.345Z,10.65
2019-02-20T16:08:46.393Z,10.65
2019-02-20T16:13:22.200Z,12.05
2019-02-20T16:17:58.046Z,11.60
2019-02-20T16:22:35.861Z,11.73
2019-02-20T16:27:11.705Z,11.28
2019-02-20T16:31:47.599Z,12.88
2019-02-20T16:36:23.468Z,12.28
2019-02-20T16:40:59.339Z,13.32
2019-02-20T16:45:35.120Z,13.95
2019-02-20T16:50:11.995Z,14.45
2019-02-20T16:54:47.793Z,12.37
2019-02-20T16:59:23.677Z,13.62
2019-02-20T17:03:59.516Z,14.43
2019-02-20T17:08:36.417Z,14.40
2019-02-20T17:13:12.256Z,11.95
2019-02-20T17:17:48.174Z,12.23
2019-02-20T17:22:24.387Z,10.65
2019-02-20T17:27:00.292Z,9.85
2019-02-20T17:31:36.125Z,7.75
2019-02-20T17:36:11.994Z,8.95
2019-02-20T17:40:47.757Z,11.75
2019-02-20T17:45:24.733Z,9.30
2019-02-20T17:50:00.532Z,9.60
2019-02-20T17:54:36.397Z,9.23
2019-02-20T17:59:12.180Z,14.40
2019-02-20T18:03:47.997Z,12.07
2019-02-20T18:08:23.829Z,15.08
2019-02-20T18:12:59.621Z,9.78
2019-02-20T18:17:35.382Z,9.65
2019-02-20T18:22:11.165Z,15.30
2019-02-20T18:26:46.936Z,17.05
2019-02-20T18:31:22.738Z,11.12
2019-02-20T18:35:58.521Z,11.78
2019-02-20T18:40:34.776Z,10.78
2019-02-20T18:45:11.797Z,25.05
2019-02-20T18:49:49.434Z,34.55
2019-02-20T18:54:25.383Z,23.45
2019-02-20T18:59:01.180Z,8.83
2019-02-20T19:03:37.459Z,8.73
2019-02-20T19:08:35.717Z,6.85
2019-02-20T19:14:09.175Z,7.55
2019-02-20T19:19:25.130Z,9.15
2019-02-20T19:24:57.065Z,9.08
2019-02-20T19:29:55.714Z,8.28
2019-02-20T19:35:08.250Z,9.65
2019-02-20T19:40:20.703Z,9.70
2019-02-20T19:45:34.285Z,8.70
2019-02-20T19:50:48.590Z,9.90
2019-02-20T19:55:43.419Z,14.53
2019-02-20T20:00:42.386Z,12.78
2019-02-20T20:05:54.408Z,9.90
2019-02-20T20:11:16.197Z,10.25
2019-02-20T20:16:18.656Z,8.33
2019-02-20T20:21:06.121Z,7.30
2019-02-20T20:26:03.431Z,8.43
2019-02-20T20:31:08.729Z,9.45
2019-02-20T20:36:14.744Z,8.75
2019-02-20T20:41:28.377Z,7.20
2019-02-20T20:46:44.366Z,6.83
2019-02-20T20:52:12.633Z,7.33
2019-02-20T20:57:18.732Z,6.87
2019-02-20T21:02:32.083Z,7.85
2019-02-20T21:07:33.226Z,8.75
2019-02-20T21:12:42.105Z,7.22
2019-02-20T21:17:57.374Z,7.55
2019-02-20T21:23:07.710Z,8.35
2019-02-20T21:28:30.537Z,8.18
2019-02-20T21:33:49.534Z,7.42
2019-02-20T21:39:01.526Z,6.83
2019-02-20T21:44:20.628Z,7.92
2019-02-20T21:49:18.316Z,7.33
2019-02-20T21:54:37.185Z,7.00
2019-02-20T21:59:41.441Z,7.85
2019-02-20T22:04:43.026Z,6.62
2019-02-20T22:09:58.214Z,7.03
2019-02-20T22:14:48.462Z,7.62
2019-02-20T22:19:58.514Z,5.65
2019-02-20T22:24:52.772Z,5.17
2019-02-20T22:30:04.781Z,7.20
2019-02-20T22:35:09.675Z,5.00
2019-02-20T22:40:23.622Z,5.67
2019-02-20T22:45:25.092Z,5.75
2019-02-20T22:50:27.257Z,5.55
2019-02-20T22:55:35.171Z,5.70
2019-02-20T23:05:48.588Z,5.47
2019-02-20T23:15:21.669Z,5.10
2019-02-20T23:19:57.489Z,4.37
2019-02-20T23:24:33.256Z,5.10
2019-02-20T23:29:09.022Z,5.00
2019-02-20T23:33:44.896Z,5.35
2019-02-20T23:38:20.661Z,4.00
2019-02-20T23:42:56.437Z,4.30
2019-02-20T23:47:32.204Z,3.65
2019-02-20T23:52:08.017Z,4.08
2019-02-20T23:56:43.788Z,4.33
